Flight Track Log - Related Links

Times and Time Zones

All times are in EDT time to prevent confusion due to time zone crossing. See the PRY5 flight status page for this flight to view local times or setup timezone preferences in your user account.

Time Position Orientation Groundspeed Altitude Reporting Facility
EDT Latitude Longitude Course Direction KTS MPH feet Rate Location/Type
Mon 06:24:00 PM 41.8995 -80.4025 223° Southwest  Level Estimated
Mon 06:25:00 PM 41.8688 -80.4405 223° Southwest  Level Estimated
Mon 06:26:00 PM 41.8382 -80.4784 223° Southwest  Level Estimated
Mon 06:27:00 PM 41.8075 -80.5163 223° Southwest  Level Estimated
Mon 06:28:00 PM 41.7768 -80.5542 223° Southwest  Level Estimated
Mon 06:29:00 PM 41.7461 -80.5920 223° Southwest  Level Estimated
Mon 06:30:00 PM 41.7154 -80.6298 223° Southwest  Level Estimated
Mon 06:31:00 PM 41.6847 -80.6675 223° Southwest  Level Estimated
Mon 06:32:00 PM 41.6539 -80.7052 223° Southwest  Level Estimated
Mon 06:33:00 PM 41.6232 -80.7429 222° Southwest  Level Estimated
Mon 06:34:00 PM 41.5924 -80.7805 222° Southwest  Level Estimated
Mon 06:35:00 PM 41.5617 -80.8182 222° Southwest  Level Estimated
Mon 06:36:00 PM 41.5309 -80.8557 222° Southwest  Level Estimated
Mon 06:37:00 PM 41.5001 -80.8932 222° Southwest  Level Estimated
Mon 06:38:00 PM 41.4693 -80.9307 222° Southwest  Level Estimated
Mon 06:39:00 PM 41.4384 -80.9682 222° Southwest  Level Estimated
Mon 06:40:00 PM 41.4076 -81.0056 222° Southwest  Level Estimated
Mon 06:41:00 PM 41.3768 -81.0430 222° Southwest  Level Estimated
Mon 06:42:00 PM 41.3459 -81.0804 222° Southwest  Level Estimated
Mon 06:43:00 PM 41.3150 -81.1177 222° Southwest  Level Estimated
Mon 06:44:00 PM 41.2842 -81.1550 222° Southwest  Level Estimated
Mon 06:45:00 PM 41.2533 -81.1922 222° Southwest  Level Estimated
Mon 06:46:00 PM 41.2224 -81.2294 222° Southwest  Level Estimated
Mon 06:47:00 PM 41.1915 -81.2666 222° Southwest  Level Estimated
Mon 06:48:00 PM 41.1605 -81.3038 222° Southwest  Level Estimated
Mon 06:49:00 PM 41.1296 -81.3409 222° Southwest  Level Estimated
Mon 06:50:00 PM 41.0986 -81.3780 222° Southwest  Level Estimated
Mon 06:51:00 PM 41.0677 -81.4150 222° Southwest  Level Estimated
Mon 06:52:00 PM 41.0367 -81.4520 222° Southwest  Level Estimated
Mon 06:53:00 PM 41.0057 -81.4890 222° Southwest  Level Estimated
Mon 06:54:00 PM 40.9747 -81.5259 222° Southwest  Level Estimated
Mon 06:55:00 PM 40.9437 -81.5628 222° Southwest  Level Estimated
Mon 06:56:00 PM 40.9127 -81.5997 222° Southwest  Level Estimated
Mon 06:57:00 PM 40.8816 -81.6365 222° Southwest  Level Estimated
Mon 06:58:00 PM 40.8506 -81.6733 222° Southwest  Level Estimated
Mon 06:59:00 PM 40.8195 -81.7101 222° Southwest  Level Estimated
Mon 07:00:00 PM 40.7885 -81.7468 222° Southwest  Level Estimated

Login

Don't have an account? Register now (free) for customized features, flight alerts, and more!